INFORMACIÓN METAR y TAF
METAR FOR LEBZ
ADDS - METARS form results

(0512 UTC 13 December 2019)
Data provider http://aviationweather.gov/metar/data/
 
Forecast for: LEBZ (TALAVERA AB/BADA, ES)
Text: TAF LEBZ 122300Z 1300/1324 27012KT 9999 SCT015 TX16/1314Z TN11/1323Z
Forecast period: 0000 UTC 13 December 2019 to 0000 UTC 14 December 2019
Forecast type: FROM: standard forecast or significant change
Winds: from the W (270 degrees) at 14 MPH (12 knots; 6.2 m/s)
Visibility: 6 or more miles 10+ km)
Ceiling: at least 12,000 feet AGL
Clouds: scattered clouds at 1500 feet AGL
Weather: no significant weather forecast for this period
Text: PROB40
Forecast period: 0000 to 0900 UTC 13 December 2019
Forecast type: TEMPORARY: The following changes expected for less than half the time period
Visibility: missing
Ceiling: 900 feet AGL
Clouds: broken clouds at 900 feet AGL
Weather: no significant weather forecast for this period

 MAPA DE AEROPUERTO

 INFORMACIÓN DE PISTA
Pista 13 Longitud 9350 ft Ancho 197 ft
Elevación 579 ft Umbral desplazado 0 ft Rumbo de pista 126
Pista 31 Longitud 9350 ft Ancho 197 ft
Elevación 609 ft Umbral desplazado 0 ft Rumbo de pista 306

 FRECUANCIAS DEL AEROPUERTO
Tipo APP Nombre APP Frecuencia 139.3 MHZ
Tipo TWR Nombre BADAJOZ TW Frecuencia 122.1 MHZ

 RADIO AYUDAS DEL AEROPUERTO
Tipo NDB Nombre Badajoz Frecuencia 298 KHZ
Tipo TACAN Nombre Talavera Frecuencia 108800 KHZ
Tipo VOR-DME Nombre Badajoz Frecuencia 116800 KHZ




Powered by Virtual Airlines Manager